createdAt,value
2022-11-29T00:01:44.600Z,16.40
2022-11-29T00:04:12.266Z,16.73
2022-11-29T00:06:40.269Z,16.32
2022-11-29T00:09:12.647Z,14.23
2022-11-29T00:12:00.801Z,20.65
2022-11-29T00:14:29.978Z,17.45
2022-11-29T00:17:02.630Z,16.27
2022-11-29T00:19:32.240Z,22.77
2022-11-29T00:22:00.575Z,24.27
2022-11-29T00:24:28.652Z,22.85
2022-11-29T00:26:56.808Z,25.50
2022-11-29T00:29:25.108Z,21.77
2022-11-29T00:31:53.131Z,23.80
2022-11-29T00:34:21.218Z,22.13
2022-11-29T00:36:48.944Z,19.57
2022-11-29T00:39:17.014Z,20.23
2022-11-29T00:41:45.079Z,15.38
2022-11-29T00:44:18.397Z,19.50
2022-11-29T00:46:43.448Z,18.52
2022-11-29T00:49:11.570Z,19.10
2022-11-29T00:51:39.419Z,17.80
2022-11-29T00:54:07.492Z,18.60
2022-11-29T00:56:35.268Z,18.35
2022-11-29T00:59:04.270Z,15.83
2022-11-29T01:01:32.153Z,14.63
2022-11-29T01:04:01.865Z,14.70
2022-11-29T01:06:29.585Z,13.85
2022-11-29T01:08:57.659Z,12.98
2022-11-29T01:11:30.219Z,12.95
2022-11-29T01:14:01.520Z,13.08
2022-11-29T01:16:31.066Z,13.48
2022-11-29T01:18:58.904Z,14.80
2022-11-29T01:21:27.539Z,13.32
2022-11-29T01:23:55.468Z,13.50
2022-11-29T01:26:29.604Z,17.02
2022-11-29T01:28:59.676Z,12.60
2022-11-29T01:31:31.229Z,15.10
2022-11-29T01:34:02.215Z,11.85
2022-11-29T01:36:30.473Z,13.90
2022-11-29T01:39:03.545Z,11.68
2022-11-29T01:41:36.791Z,12.35
2022-11-29T01:44:14.235Z,15.10
2022-11-29T01:46:44.936Z,12.88
2022-11-29T01:49:29.013Z,12.88
2022-11-29T01:52:06.153Z,14.83
2022-11-29T01:54:41.341Z,12.18
2022-11-29T01:57:10.453Z,14.70
2022-11-29T01:59:42.183Z,15.70
2022-11-29T02:02:42.148Z,19.50
2022-11-29T02:05:12.628Z,11.53
2022-11-29T02:07:42.346Z,17.05
2022-11-29T02:10:10.723Z,14.80
2022-11-29T02:12:54.874Z,15.40
2022-11-29T02:15:29.442Z,16.60
2022-11-29T02:20:45.873Z,14.65
2022-11-29T02:23:29.530Z,17.02
2022-11-29T02:26:36.484Z,14.63
2022-11-29T02:29:30.975Z,16.62
2022-11-29T02:32:37.604Z,18.17
2022-11-29T02:35:21.615Z,17.52
2022-11-29T02:38:26.981Z,15.70
2022-11-29T02:41:08.952Z,15.68
2022-11-29T02:44:14.445Z,16.65
2022-11-29T02:47:00.279Z,13.93
2022-11-29T02:49:57.562Z,16.23
2022-11-29T02:52:31.867Z,15.48
2022-11-29T02:55:10.004Z,13.25
2022-11-29T02:57:50.331Z,12.25
2022-11-29T03:00:23.329Z,14.65
2022-11-29T03:03:09.526Z,14.60
2022-11-29T03:06:00.142Z,13.85
2022-11-29T03:09:02.023Z,12.63
2022-11-29T03:11:51.845Z,12.45
2022-11-29T03:14:29.003Z,14.15
2022-11-29T03:17:15.393Z,14.90
2022-11-29T03:20:08.624Z,14.70
2022-11-29T03:23:01.503Z,14.53
2022-11-29T03:25:59.811Z,13.75
2022-11-29T03:28:37.459Z,13.03
2022-11-29T03:31:28.231Z,15.08
2022-11-29T03:34:11.518Z,13.43
2022-11-29T03:36:58.718Z,15.78
2022-11-29T03:39:33.452Z,11.78
2022-11-29T03:42:03.637Z,16.20
2022-11-29T03:44:37.970Z,14.60
2022-11-29T03:47:12.568Z,15.05
2022-11-29T03:50:02.012Z,11.53
2022-11-29T03:52:36.283Z,15.13
2022-11-29T03:55:17.587Z,15.08
2022-11-29T03:58:23.069Z,16.00
2022-11-29T04:01:06.828Z,12.93
2022-11-29T04:03:56.811Z,13.75
2022-11-29T04:06:31.061Z,12.35
2022-11-29T04:12:00.042Z,15.15
2022-11-29T04:14:37.756Z,12.80
2022-11-29T04:17:43.098Z,16.23
2022-11-29T04:20:37.574Z,17.27
2022-11-29T04:23:25.925Z,19.75
2022-11-29T04:26:34.968Z,21.70
2022-11-29T04:29:11.529Z,16.67
2022-11-29T04:32:10.359Z,16.23
2022-11-29T04:35:01.668Z,17.17
2022-11-29T04:37:48.468Z,16.42
2022-11-29T04:40:40.534Z,12.70
2022-11-29T04:43:15.457Z,14.78
2022-11-29T04:46:07.731Z,13.58
2022-11-29T04:49:03.751Z,15.30
2022-11-29T04:51:43.964Z,14.63
2022-11-29T04:54:35.088Z,12.70
2022-11-29T04:57:22.776Z,13.32
2022-11-29T05:00:11.879Z,16.73
2022-11-29T05:02:55.590Z,13.72
2022-11-29T05:05:43.718Z,13.83
2022-11-29T05:08:27.846Z,14.30
2022-11-29T05:11:08.226Z,16.42
2022-11-29T05:14:02.784Z,10.98
2022-11-29T05:16:51.176Z,13.98
2022-11-29T05:19:41.077Z,12.73
2022-11-29T05:22:27.306Z,15.63
2022-11-29T05:25:05.307Z,12.03
2022-11-29T05:27:48.907Z,20.85
2022-11-29T05:30:20.521Z,16.67
2022-11-29T05:32:59.241Z,15.83
2022-11-29T05:35:37.010Z,16.77
2022-11-29T05:38:17.707Z,17.65
2022-11-29T05:41:04.315Z,18.15
2022-11-29T05:43:50.532Z,18.87
2022-11-29T05:46:31.161Z,18.98
2022-11-29T05:49:26.099Z,21.80
2022-11-29T05:52:06.905Z,22.30
2022-11-29T05:54:39.432Z,22.27
2022-11-29T05:57:11.187Z,19.50
2022-11-29T05:59:39.696Z,40.40
2022-11-29T06:02:29.992Z,28.67
2022-11-29T06:05:07.367Z,29.72
2022-11-29T06:08:03.439Z,21.40
2022-11-29T06:10:37.611Z,16.42
2022-11-29T06:13:28.440Z,20.60
2022-11-29T06:16:05.866Z,19.20
2022-11-29T06:18:52.253Z,22.87
2022-11-29T06:21:30.054Z,21.30
2022-11-29T06:24:26.095Z,17.82
2022-11-29T06:27:04.054Z,19.73
2022-11-29T06:30:05.030Z,20.32
2022-11-29T06:32:54.764Z,20.55
2022-11-29T06:35:38.559Z,17.87
2022-11-29T06:38:25.861Z,17.35
2022-11-29T06:40:58.693Z,17.45
2022-11-29T06:43:26.090Z,20.85
2022-11-29T06:46:06.853Z,18.00
2022-11-29T06:48:38.800Z,22.40
2022-11-29T06:51:10.321Z,23.35
2022-11-29T06:53:48.162Z,22.42
2022-11-29T06:56:42.237Z,16.75
2022-11-29T06:59:33.671Z,15.70
2022-11-29T07:02:18.097Z,14.35
2022-11-29T07:05:09.198Z,20.67
2022-11-29T07:07:37.556Z,13.35
2022-11-29T07:10:11.961Z,15.78
2022-11-29T07:12:37.598Z,16.20
2022-11-29T07:15:06.432Z,20.43
2022-11-29T07:17:44.518Z,19.67
2022-11-29T07:20:39.728Z,20.30
2022-11-29T07:23:29.730Z,21.02
2022-11-29T07:26:19.235Z,21.37
2022-11-29T07:28:56.887Z,18.37
2022-11-29T07:31:40.951Z,68.00
2022-11-29T07:34:37.880Z,24.57
2022-11-29T07:37:24.931Z,60.85
2022-11-29T07:40:17.131Z,48.70
2022-11-29T07:43:03.590Z,43.23
2022-11-29T07:45:34.134Z,38.38
2022-11-29T07:48:01.792Z,35.68
2022-11-29T07:50:32.012Z,73.17
2022-11-29T07:53:00.256Z,125.85
2022-11-29T07:55:27.991Z,119.67
2022-11-29T07:57:57.595Z,156.97
2022-11-29T08:00:25.437Z,226.07
2022-11-29T08:02:53.328Z,199.42
2022-11-29T08:05:21.115Z,183.20
2022-11-29T08:07:50.168Z,162.85
2022-11-29T08:10:17.932Z,134.03
2022-11-29T08:12:51.795Z,90.92
2022-11-29T08:15:24.310Z,92.40
2022-11-29T08:17:53.583Z,84.72
2022-11-29T08:20:21.350Z,75.45
2022-11-29T08:22:59.454Z,60.43
2022-11-29T08:25:27.735Z,44.10
2022-11-29T08:27:56.663Z,38.78
2022-11-29T08:30:24.539Z,32.78
2022-11-29T08:32:52.873Z,34.27
2022-11-29T08:35:22.397Z,34.10
2022-11-29T08:37:50.717Z,36.68
2022-11-29T08:40:21.845Z,41.20
2022-11-29T08:42:49.445Z,28.87
2022-11-29T08:45:17.091Z,26.48
2022-11-29T08:47:51.773Z,26.12
2022-11-29T08:50:19.882Z,30.05
2022-11-29T08:53:16.966Z,28.98
2022-11-29T08:55:46.909Z,31.27
2022-11-29T08:58:16.237Z,28.73
2022-11-29T09:00:47.064Z,29.05
2022-11-29T09:03:34.879Z,24.50
2022-11-29T09:06:16.397Z,24.90
2022-11-29T09:08:45.216Z,26.23
2022-11-29T09:11:17.555Z,21.73
2022-11-29T09:13:58.158Z,16.42
2022-11-29T09:16:28.077Z,17.80
2022-11-29T09:18:56.572Z,19.57
2022-11-29T09:21:26.028Z,17.57
2022-11-29T09:23:57.416Z,25.30
2022-11-29T09:26:27.916Z,17.80
2022-11-29T09:28:58.221Z,19.25
2022-11-29T09:31:27.357Z,20.60
2022-11-29T09:33:57.451Z,23.32
2022-11-29T09:36:29.260Z,25.02
2022-11-29T09:38:57.656Z,28.55
2022-11-29T09:41:49.139Z,23.35
2022-11-29T09:44:30.374Z,25.05
2022-11-29T09:47:29.535Z,21.27
2022-11-29T09:50:30.215Z,20.00
2022-11-29T09:53:12.546Z,20.00
2022-11-29T09:55:56.364Z,23.57
2022-11-29T09:58:41.887Z,17.90
2022-11-29T10:01:21.450Z,21.55
2022-11-29T10:03:53.018Z,17.27
2022-11-29T10:06:31.100Z,16.73
2022-11-29T10:09:08.600Z,16.50
2022-11-29T10:11:46.185Z,13.88
2022-11-29T10:14:18.219Z,15.32
2022-11-29T10:16:55.383Z,15.88
2022-11-29T10:19:26.866Z,15.38
2022-11-29T10:22:11.486Z,16.37
2022-11-29T10:24:42.273Z,13.40
2022-11-29T10:27:17.157Z,16.62
2022-11-29T10:29:47.207Z,15.03
2022-11-29T10:32:16.734Z,15.23
2022-11-29T10:34:45.347Z,15.28
2022-11-29T10:37:23.692Z,15.65
2022-11-29T10:39:55.235Z,15.48
2022-11-29T10:42:45.269Z,17.70
2022-11-29T10:45:35.445Z,19.12
2022-11-29T10:48:09.973Z,17.10
2022-11-29T10:50:40.971Z,15.90
2022-11-29T10:53:12.623Z,20.50
2022-11-29T10:55:56.282Z,17.98
2022-11-29T10:58:28.589Z,17.05
2022-11-29T11:00:58.817Z,15.00
2022-11-29T11:03:33.564Z,18.35
2022-11-29T11:06:13.939Z,18.00
2022-11-29T11:08:48.911Z,20.23
2022-11-29T11:11:26.881Z,14.70
2022-11-29T11:14:00.612Z,20.10
2022-11-29T11:16:31.677Z,19.98
2022-11-29T11:18:59.008Z,16.73
2022-11-29T11:21:28.790Z,16.60
2022-11-29T11:24:03.080Z,16.07
2022-11-29T11:26:45.701Z,24.57
2022-11-29T11:29:23.871Z,28.23
2022-11-29T11:31:54.715Z,29.87
2022-11-29T11:34:36.770Z,30.20
2022-11-29T11:37:17.764Z,36.53
2022-11-29T11:39:48.953Z,27.35
2022-11-29T11:42:38.741Z,23.10
2022-11-29T11:45:16.602Z,21.45
2022-11-29T11:47:48.521Z,21.48
2022-11-29T11:50:26.056Z,20.72
2022-11-29T11:53:02.925Z,28.77
2022-11-29T11:55:41.527Z,26.25
2022-11-29T11:58:16.599Z,23.42
2022-11-29T12:01:09.213Z,24.57
2022-11-29T12:03:59.336Z,18.07
2022-11-29T12:06:47.460Z,19.10
2022-11-29T12:09:27.940Z,18.80
2022-11-29T12:12:25.795Z,15.53
2022-11-29T12:15:00.706Z,14.83
2022-11-29T12:17:44.438Z,13.55
2022-11-29T12:20:31.815Z,12.53
2022-11-29T12:23:20.916Z,13.25
2022-11-29T12:26:01.564Z,12.60
2022-11-29T12:28:39.137Z,13.43
2022-11-29T12:31:28.744Z,17.12
2022-11-29T12:34:19.597Z,13.93
2022-11-29T12:36:51.863Z,14.45
2022-11-29T12:39:41.276Z,14.45
2022-11-29T12:42:38.889Z,14.78
2022-11-29T12:45:25.379Z,12.90
2022-11-29T12:48:15.097Z,14.07
2022-11-29T12:51:05.060Z,13.98
2022-11-29T12:53:59.656Z,13.75
2022-11-29T12:56:46.644Z,12.93
2022-11-29T12:59:36.167Z,12.90
2022-11-29T13:02:22.897Z,12.73
2022-11-29T13:05:17.601Z,12.10
2022-11-29T13:08:07.406Z,11.57
2022-11-29T13:10:53.662Z,13.83
2022-11-29T13:13:31.439Z,10.63
2022-11-29T13:16:03.341Z,11.28
2022-11-29T13:18:44.575Z,14.60
2022-11-29T13:21:22.383Z,15.08
2022-11-29T13:24:09.876Z,10.53
2022-11-29T13:26:40.661Z,11.68
2022-11-29T13:29:12.266Z,9.63
2022-11-29T13:31:40.718Z,10.55
2022-11-29T13:34:24.475Z,11.73
2022-11-29T13:37:07.780Z,11.80
2022-11-29T13:39:48.451Z,12.30
2022-11-29T13:42:37.375Z,16.42
2022-11-29T13:45:12.581Z,16.62
2022-11-29T13:50:43.968Z,13.95
2022-11-29T13:53:18.863Z,14.35
2022-11-29T13:55:54.138Z,14.05
2022-11-29T13:58:32.091Z,13.48
2022-11-29T14:01:13.440Z,13.90
2022-11-29T14:03:43.430Z,15.08
2022-11-29T14:06:24.642Z,21.87
2022-11-29T14:09:19.306Z,19.82
2022-11-29T14:11:52.458Z,26.17
2022-11-29T14:14:30.333Z,18.50
2022-11-29T14:17:01.394Z,19.05
2022-11-29T14:19:35.740Z,24.77
2022-11-29T14:22:19.182Z,24.12
2022-11-29T14:24:59.768Z,32.73
2022-11-29T14:27:31.020Z,32.58
2022-11-29T14:30:00.450Z,32.53
2022-11-29T14:32:51.701Z,29.20
2022-11-29T14:35:38.884Z,29.15
2022-11-29T14:38:19.704Z,27.85
2022-11-29T14:40:59.984Z,31.27
2022-11-29T14:43:39.086Z,29.05
2022-11-29T14:46:22.581Z,69.17
2022-11-29T14:48:59.436Z,31.02
2022-11-29T14:51:33.150Z,24.57
2022-11-29T14:54:20.491Z,28.15
2022-11-29T14:56:48.525Z,25.00
2022-11-29T14:59:46.151Z,39.33
2022-11-29T15:02:35.631Z,42.73
2022-11-29T15:05:16.439Z,46.48
2022-11-29T15:07:48.044Z,44.75
2022-11-29T15:10:22.303Z,46.73
2022-11-29T15:12:51.525Z,46.90
2022-11-29T15:15:47.088Z,48.38
2022-11-29T15:18:25.835Z,48.65
2022-11-29T15:21:12.408Z,44.15
2022-11-29T15:23:42.780Z,44.77
2022-11-29T15:26:19.516Z,34.03
2022-11-29T15:28:48.243Z,32.13
2022-11-29T15:31:19.835Z,32.30
2022-11-29T15:33:50.872Z,36.05
2022-11-29T15:36:20.776Z,27.27
2022-11-29T15:38:54.698Z,26.77
2022-11-29T15:41:31.799Z,26.30
2022-11-29T15:44:02.391Z,24.35
2022-11-29T15:46:33.387Z,28.15
2022-11-29T15:49:26.568Z,28.52
2022-11-29T15:52:00.979Z,32.23
2022-11-29T15:54:38.111Z,42.67
2022-11-29T15:57:27.508Z,32.73
2022-11-29T16:00:01.913Z,29.30
2022-11-29T16:02:34.575Z,29.90
2022-11-29T16:05:24.137Z,26.10
2022-11-29T16:07:55.197Z,29.75
2022-11-29T16:10:35.359Z,29.75
2022-11-29T16:13:07.933Z,26.20
2022-11-29T16:15:41.350Z,28.02
2022-11-29T16:18:14.541Z,23.42
2022-11-29T16:20:42.250Z,19.35
2022-11-29T16:23:15.192Z,18.57
2022-11-29T16:25:58.586Z,18.25
2022-11-29T16:28:30.194Z,22.02
2022-11-29T16:30:58.793Z,15.18
2022-11-29T16:33:27.695Z,24.45
2022-11-29T16:36:07.651Z,21.45
2022-11-29T16:38:35.518Z,18.27
2022-11-29T16:41:09.166Z,17.10
2022-11-29T16:43:55.744Z,22.93
2022-11-29T16:46:26.917Z,17.77
2022-11-29T16:48:56.793Z,17.00
2022-11-29T16:51:39.941Z,17.07
2022-11-29T16:54:28.709Z,16.90
2022-11-29T16:56:57.250Z,18.00
2022-11-29T16:59:28.415Z,18.32
2022-11-29T17:01:56.982Z,18.82
2022-11-29T17:04:26.231Z,19.27
2022-11-29T17:06:56.787Z,24.50
2022-11-29T17:09:27.845Z,20.05
2022-11-29T17:11:56.375Z,22.73
2022-11-29T17:14:24.390Z,22.85
2022-11-29T17:16:52.300Z,21.25
2022-11-29T17:19:26.474Z,17.32
2022-11-29T17:21:54.277Z,15.95
2022-11-29T17:24:23.821Z,17.80
2022-11-29T17:26:53.002Z,21.55
2022-11-29T17:29:20.691Z,18.23
2022-11-29T17:31:50.151Z,16.00
2022-11-29T17:34:18.300Z,18.25
2022-11-29T17:36:45.988Z,21.90
2022-11-29T17:39:15.883Z,19.80
2022-11-29T17:41:43.593Z,18.45
2022-11-29T17:44:12.058Z,17.32
2022-11-29T17:46:43.598Z,18.17
2022-11-29T17:49:11.194Z,20.00
2022-11-29T17:51:51.639Z,13.55
2022-11-29T17:54:11.141Z,12.40
2022-11-29T17:56:38.800Z,12.28
2022-11-29T17:59:06.986Z,10.78
2022-11-29T18:01:36.005Z,10.45
2022-11-29T18:04:06.109Z,13.22
2022-11-29T18:06:39.372Z,12.28
2022-11-29T18:09:09.189Z,11.70
2022-11-29T18:11:48.140Z,10.72
2022-11-29T18:14:12.569Z,8.35
2022-11-29T18:16:40.435Z,10.65
2022-11-29T18:19:11.380Z,8.33
2022-11-29T18:21:39.365Z,13.20
2022-11-29T18:24:08.323Z,9.80
2022-11-29T18:26:36.839Z,9.68
2022-11-29T18:29:05.835Z,6.87
2022-11-29T18:31:35.876Z,11.00
2022-11-29T18:34:07.389Z,8.98
2022-11-29T18:36:37.237Z,9.10
2022-11-29T18:39:10.185Z,10.08
2022-11-29T18:41:38.560Z,9.80
2022-11-29T18:44:11.447Z,11.70
2022-11-29T18:46:41.623Z,11.55
2022-11-29T18:49:11.619Z,19.65
2022-11-29T18:51:40.415Z,16.90
2022-11-29T18:54:08.991Z,13.15
2022-11-29T18:56:38.612Z,17.23
2022-11-29T18:59:10.465Z,16.42
2022-11-29T19:01:43.123Z,15.85
2022-11-29T19:04:22.139Z,16.32
2022-11-29T19:06:50.140Z,10.75
2022-11-29T19:09:22.780Z,11.18
2022-11-29T19:11:51.075Z,13.32
2022-11-29T19:14:19.740Z,11.70
2022-11-29T19:16:48.658Z,15.43
2022-11-29T19:19:18.277Z,11.35
2022-11-29T19:21:45.755Z,11.18
2022-11-29T19:24:15.291Z,15.03
2022-11-29T19:26:45.364Z,16.25
2022-11-29T19:29:14.143Z,16.37
2022-11-29T19:31:42.926Z,11.85
2022-11-29T19:34:11.482Z,16.82
2022-11-29T19:36:43.886Z,14.35
2022-11-29T19:39:14.724Z,12.85
2022-11-29T19:41:47.972Z,12.80
2022-11-29T19:44:16.108Z,27.62
2022-11-29T19:46:46.525Z,18.40
2022-11-29T19:49:15.553Z,16.48
2022-11-29T19:51:45.100Z,14.18
2022-11-29T19:54:32.839Z,14.93
2022-11-29T19:57:01.153Z,11.03
2022-11-29T19:59:28.648Z,14.20
2022-11-29T20:02:03.803Z,14.50
2022-11-29T20:04:32.909Z,13.43
2022-11-29T20:07:03.211Z,14.05
2022-11-29T20:09:31.425Z,13.13
2022-11-29T20:11:59.559Z,11.73
2022-11-29T20:14:27.894Z,15.58
2022-11-29T20:16:56.285Z,13.00
2022-11-29T20:19:24.896Z,12.58
2022-11-29T20:21:52.556Z,11.03
2022-11-29T20:27:09.258Z,12.07
2022-11-29T20:29:37.904Z,13.00
2022-11-29T20:32:06.441Z,14.87
2022-11-29T20:34:35.105Z,14.13
2022-11-29T20:37:21.936Z,11.33
2022-11-29T20:39:53.801Z,11.68
2022-11-29T20:42:45.146Z,13.20
2022-11-29T20:45:15.041Z,15.18
2022-11-29T20:47:55.743Z,10.72
2022-11-29T20:50:30.575Z,14.87
2022-11-29T20:53:11.605Z,11.63
2022-11-29T20:55:46.326Z,13.58
2022-11-29T20:58:10.213Z,11.73
2022-11-29T21:00:38.645Z,12.35
2022-11-29T21:03:07.040Z,12.20
2022-11-29T21:05:38.416Z,13.08
2022-11-29T21:08:06.997Z,13.13
2022-11-29T21:13:27.397Z,13.32
2022-11-29T21:15:55.843Z,18.87
2022-11-29T21:18:26.994Z,13.98
2022-11-29T21:21:04.602Z,13.58
2022-11-29T21:23:44.580Z,15.48
2022-11-29T21:26:17.176Z,12.90
2022-11-29T21:29:00.930Z,12.88
2022-11-29T21:31:29.280Z,16.20
2022-11-29T21:33:57.790Z,20.02
2022-11-29T21:36:25.711Z,15.68
2022-11-29T21:38:55.195Z,14.60
2022-11-29T21:41:23.266Z,14.05
2022-11-29T21:44:06.826Z,17.37
2022-11-29T21:46:21.948Z,12.98
2022-11-29T21:48:51.755Z,15.80
2022-11-29T21:51:19.752Z,14.33
2022-11-29T21:54:06.190Z,15.25
2022-11-29T21:56:35.779Z,23.55
2022-11-29T21:59:03.870Z,14.87
2022-11-29T22:01:33.635Z,16.48
2022-11-29T22:04:01.702Z,19.70
2022-11-29T22:06:29.723Z,16.52
2022-11-29T22:08:59.440Z,16.50
2022-11-29T22:11:40.542Z,19.05
2022-11-29T22:14:17.426Z,19.00
2022-11-29T22:16:57.182Z,17.37
2022-11-29T22:19:28.231Z,18.60
2022-11-29T22:22:01.402Z,16.37
2022-11-29T22:24:31.904Z,13.60
2022-11-29T22:26:59.711Z,14.23
2022-11-29T22:29:29.660Z,15.53
2022-11-29T22:31:57.752Z,15.45
2022-11-29T22:34:27.152Z,13.53
2022-11-29T22:36:55.320Z,17.10
2022-11-29T22:39:24.582Z,15.50
2022-11-29T22:41:54.660Z,17.50
2022-11-29T22:44:22.033Z,14.53
2022-11-29T22:46:49.719Z,14.87
2022-11-29T22:49:17.449Z,14.18
2022-11-29T22:51:45.583Z,15.65
2022-11-29T22:54:16.820Z,13.28
2022-11-29T22:56:45.568Z,16.50
2022-11-29T22:59:14.623Z,13.88
2022-11-29T23:01:43.238Z,16.82
2022-11-29T23:04:12.548Z,15.30
2022-11-29T23:06:45.158Z,12.88
2022-11-29T23:09:22.478Z,31.12
2022-11-29T23:11:54.292Z,15.38
2022-11-29T23:14:22.537Z,15.58
2022-11-29T23:16:50.746Z,16.87
2022-11-29T23:19:18.855Z,14.43
2022-11-29T23:21:46.755Z,13.75
2022-11-29T23:24:15.601Z,13.35
2022-11-29T23:26:46.878Z,15.60
2022-11-29T23:29:17.694Z,13.75
2022-11-29T23:31:50.164Z,14.05
2022-11-29T23:34:18.341Z,14.03
2022-11-29T23:36:51.363Z,16.12
2022-11-29T23:39:15.980Z,14.35
2022-11-29T23:41:44.301Z,17.55
2022-11-29T23:44:12.614Z,13.38
2022-11-29T23:46:40.741Z,15.93
2022-11-29T23:49:08.517Z,13.78
2022-11-29T23:51:36.293Z,14.10
2022-11-29T23:54:23.622Z,14.40
2022-11-29T23:56:51.291Z,14.33
2022-11-29T23:59:18.953Z,14.95
